Time;durP1;ratioP1;P1;durP2;ratioP2;P2;SDS_P1;SDS_P2;PMS_P1;PMS_P2;Temp;Humidity;BMP_temperature;BMP_pressure;BME280_temperature;BME280_humidity;BME280_pressure;Samples;Min_cycle;Max_cycle;Signal;HPM_P1;HPM_P2
2022/07/15 00:00:31;;;;;;;9.18;4.53;;;;;;;;;;5058755;28;20147;-57
2022/07/15 00:02:58;;;;;;;6.97;3.75;;;;;;;;;;5057944;28;20025;-55
2022/07/15 00:05:24;;;;;;;4.45;2.80;;;;;;;;;;5060291;28;20033;-55
2022/07/15 00:07:50;;;;;;;6.82;2.38;;;;;;;;;;5062510;28;20032;-56
2022/07/15 00:10:20;;;;;;;3.63;2.28;;;;;;;;;;5061496;28;20020;-53
2022/07/15 00:12:48;;;;;;;4.65;2.28;;;;;;;;;;5061294;28;20025;-56
2022/07/15 00:15:14;;;;;;;4.07;2.05;;;;;;;;;;5064196;28;20087;-54
2022/07/15 00:17:41;;;;;;;5.60;1.67;;;;;;;;;;5043140;28;20051;-54
2022/07/15 00:20:09;;;;;;;5.13;2.10;;;;;;;;;;5063394;28;20507;-57
2022/07/15 00:22:35;;;;;;;4.80;2.90;;;;;;;;;;5064390;28;20094;-52
2022/07/15 00:25:02;;;;;;;4.28;2.00;;;;;;;;;;5064131;28;20043;-54
2022/07/15 00:27:28;;;;;;;3.85;2.20;;;;;;;;;;5061624;28;20206;-56
2022/07/15 00:29:54;;;;;;;2.92;1.90;;;;;;;;;;5064994;28;20033;-60
2022/07/15 00:32:20;;;;;;;2.28;1.63;;;;;;;;;;5065939;28;20457;-54
2022/07/15 00:34:46;;;;;;;3.95;1.85;;;;;;;;;;5060074;28;20024;-55
2022/07/15 00:37:12;;;;;;;6.15;2.38;;;;;;;;;;5060011;28;20060;-56
2022/07/15 00:39:38;;;;;;;2.70;2.17;;;;;;;;;;5062678;28;20427;-54
2022/07/15 00:42:04;;;;;;;4.90;2.15;;;;;;;;;;5067526;28;20032;-54
2022/07/15 00:44:31;;;;;;;3.33;2.13;;;;;;;;;;5041066;28;20045;-53
2022/07/15 00:47:00;;;;;;;5.65;2.10;;;;;;;;;;5060170;28;20040;-56
2022/07/15 00:49:26;;;;;;;3.28;1.92;;;;;;;;;;5065430;28;20484;-54
2022/07/15 00:51:55;;;;;;;3.13;1.85;;;;;;;;;;5064510;28;20456;-55
2022/07/15 00:54:25;;;;;;;4.53;2.30;;;21.70;99.90;;;;;;5054782;28;20469;-52
2022/07/15 00:56:54;;;;;;;6.63;2.20;;;21.60;99.90;;;;;;5013966;28;20055;-54
2022/07/15 00:59:22;;;;;;;4.18;2.42;;;21.50;99.90;;;;;;5057043;28;20618;-54
2022/07/15 01:01:50;;;;;;;7.03;2.35;;;21.40;99.90;;;;;;5063265;28;20032;-56
2022/07/15 01:04:18;;;;;;;4.68;2.00;;;21.50;99.90;;;;;;5065088;28;20689;-53
2022/07/15 01:06:43;;;;;;;2.72;1.83;;;21.60;99.90;;;;;;5056501;28;20542;-56
2022/07/15 01:09:10;;;;;;;10.80;2.22;;;21.60;99.90;;;;;;5064622;28;20029;-55
2022/07/15 01:11:36;;;;;;;7.50;1.83;;;21.80;99.90;;;;;;5063294;28;20118;-52
2022/07/15 01:14:02;;;;;;;4.22;2.20;;;21.80;99.90;;;;;;5064674;28;20499;-53
2022/07/15 01:16:28;;;;;;;3.25;1.80;;;22.00;99.90;;;;;;5061128;28;20586;-56
2022/07/15 01:18:55;;;;;;;7.82;2.17;;;22.10;99.90;;;;;;5055631;28;20044;-55
2022/07/15 01:21:21;;;;;;;5.00;2.17;;;22.20;99.90;;;;;;5044674;28;20487;-54
2022/07/15 01:23:46;;;;;;;3.90;2.15;;;22.20;99.90;;;;;;5062529;28;20044;-57
2022/07/15 01:26:13;;;;;;;3.78;2.00;;;22.20;99.90;;;;;;5062457;28;20636;-55
2022/07/15 01:28:40;;;;;;;3.30;1.80;;;22.20;99.90;;;;;;5060727;28;20032;-56
2022/07/15 01:31:06;;;;;;;4.57;2.25;;;22.10;99.90;;;;;;5054372;28;20028;-55
2022/07/15 01:33:32;;;;;;;5.95;2.10;;;21.90;99.90;;;;;;5060845;28;20512;-55
2022/07/15 01:35:59;;;;;;;3.38;1.80;;;;;;;;;;5039739;28;20036;-54
2022/07/15 01:38:25;;;;;;;3.58;1.80;;;;;;;;;;5061039;28;20078;-56
2022/07/15 01:40:52;;;;;;;2.40;1.80;;;;;;;;;;5060327;28;20113;-53
2022/07/15 01:43:18;;;;;;;5.22;1.77;;;;;;;;;;5060249;28;20487;-56
2022/07/15 01:45:44;;;;;;;5.20;2.28;;;;;;;;;;5038985;28;20067;-52
2022/07/15 01:49:21;;;;;;;3.20;1.98;;;;;;;;;;5039697;28;20041;-55
2022/07/15 01:50:58;;;;;;;5.35;2.22;;;;;;;;;;5050920;28;20021;-56
2022/07/15 01:53:24;;;;;;;6.22;2.20;;;;;;;;;;5034613;28;20755;-55
2022/07/15 01:55:50;;;;;;;3.47;1.98;;;;;;;;;;5054337;28;20102;-56
2022/07/15 01:58:17;;;;;;;4.13;2.45;;;;;;;;;;5041107;28;20043;-53
2022/07/15 02:00:43;;;;;;;3.65;2.22;;;;;;;;;;5062089;28;20037;-54
2022/07/15 02:03:09;;;;;;;4.60;2.40;;;;;;;;;;5060869;28;20056;-56
2022/07/15 02:05:35;;;;;;;5.20;2.60;;;20.30;99.90;;;;;;5056100;28;20025;-56
2022/07/15 02:08:02;;;;;;;6.68;2.30;;;20.30;99.90;;;;;;5064357;28;20021;-52
2022/07/15 02:10:40;;;;;;;4.95;2.30;;;;;;;;;;5055062;28;20033;-52
2022/07/15 02:13:11;;;;;;;4.40;2.50;;;20.10;99.90;;;;;;5063640;28;20078;-53
2022/07/15 02:15:38;;;;;;;2.55;1.90;;;19.80;99.90;;;;;;5061338;28;20118;-55
2022/07/15 02:18:04;;;;;;;2.40;1.90;;;19.70;99.90;;;;;;5001919;28;20039;-54
2022/07/15 02:20:31;;;;;;;4.70;2.35;;;;;;;;;;4993304;28;20069;-55
2022/07/15 02:22:57;;;;;;;2.88;2.35;;;19.70;99.90;;;;;;5000226;28;20494;-55
2022/07/15 02:25:30;;;;;;;3.28;2.42;;;19.40;99.90;;;;;;5001287;28;20030;-53
2022/07/15 02:27:59;;;;;;;3.33;2.25;;;19.40;99.90;;;;;;4990743;28;20062;-55
2022/07/15 02:30:29;;;;;;;4.53;1.75;;;19.50;99.90;;;;;;4968599;28;20046;-55
2022/07/15 02:32:55;;;;;;;5.75;2.08;;;19.50;99.90;;;;;;5005385;28;20057;-53
2022/07/15 02:35:22;;;;;;;2.58;1.95;;;19.50;99.90;;;;;;4966830;28;20042;-54
2022/07/15 02:37:48;;;;;;;4.63;2.15;;;19.40;99.90;;;;;;4999833;28;20548;-52
2022/07/15 02:40:14;;;;;;;5.75;1.80;;;19.40;99.90;;;;;;4992168;28;20082;-57
2022/07/15 02:42:45;;;;;;;2.63;2.03;;;19.50;99.90;;;;;;5001772;28;20040;-51
2022/07/15 02:45:11;;;;;;;2.78;1.95;;;19.40;99.90;;;;;;5001675;28;20135;-53
2022/07/15 02:47:37;;;;;;;4.22;2.40;;;19.50;99.90;;;;;;4934905;29;20495;-55
2022/07/15 02:50:03;;;;;;;7.43;2.00;;;19.70;99.90;;;;;;4962192;28;20046;-53
2022/07/15 02:52:29;;;;;;;4.25;1.67;;;19.70;99.90;;;;;;4981804;28;20042;-53
2022/07/15 02:54:54;;;;;;;3.90;1.83;;;19.70;99.90;;;;;;4980370;28;20038;-54
2022/07/15 02:57:20;;;;;;;2.95;1.70;;;19.80;99.90;;;;;;4973530;28;20049;-53
2022/07/15 02:59:46;;;;;;;4.30;1.80;;;19.80;99.90;;;;;;4974409;28;20118;-53
2022/07/15 03:02:12;;;;;;;2.47;1.80;;;20.00;99.90;;;;;;4965234;28;20069;-52
2022/07/15 03:04:37;;;;;;;5.13;2.35;;;20.10;99.90;;;;;;4978018;28;20069;-53
2022/07/15 03:07:03;;;;;;;5.22;2.20;;;20.20;99.90;;;;;;4979804;28;20042;-52
2022/07/15 03:09:29;;;;;;;5.72;2.78;;;20.20;99.90;;;;;;4976670;28;20023;-55
2022/07/15 03:11:55;;;;;;;7.07;2.20;;;20.00;99.90;;;;;;4980826;28;20526;-54
2022/07/15 03:14:20;;;;;;;6.80;2.38;;;20.10;99.90;;;;;;4976361;28;20125;-54
2022/07/15 03:16:46;;;;;;;5.70;2.30;;;20.20;99.90;;;;;;4979262;28;20047;-53
2022/07/15 03:19:12;;;;;;;5.03;2.72;;;20.10;99.90;;;;;;4989579;28;20046;-54
2022/07/15 03:21:38;;;;;;;5.30;2.45;;;20.20;99.90;;;;;;4977479;28;20074;-53
2022/07/15 03:24:04;;;;;;;4.63;2.65;;;20.30;99.90;;;;;;5049929;28;20508;-56
2022/07/15 03:26:30;;;;;;;5.10;2.95;;;20.50;99.90;;;;;;5061462;28;20025;-54
2022/07/15 03:28:57;;;;;;;5.85;2.30;;;20.60;99.90;;;;;;5054330;28;20029;-54
2022/07/15 03:31:23;;;;;;;4.43;2.50;;;20.60;99.90;;;;;;5063201;28;20081;-54
2022/07/15 03:33:49;;;;;;;8.75;2.80;;;20.50;99.90;;;;;;5060847;28;20033;-55
2022/07/15 03:36:14;;;;;;;7.18;3.20;;;20.40;99.90;;;;;;5062837;28;20361;-56
2022/07/15 03:38:40;;;;;;;5.60;2.58;;;20.10;99.90;;;;;;5053726;28;20385;-53
2022/07/15 03:41:06;;;;;;;7.93;3.92;;;20.20;99.90;;;;;;5062597;28;20032;-56
2022/07/15 03:43:32;;;;;;;5.55;3.20;;;20.30;99.90;;;;;;5062173;28;20182;-53
2022/07/15 03:45:57;;;;;;;6.55;3.20;;;20.30;99.90;;;;;;5066821;28;20349;-53
2022/07/15 03:48:23;;;;;;;9.18;3.42;;;20.30;99.90;;;;;;5065767;28;20063;-55
2022/07/15 03:50:49;;;;;;;6.93;3.55;;;20.30;99.90;;;;;;5064780;28;20032;-56
2022/07/15 03:53:14;;;;;;;7.70;2.90;;;20.20;99.90;;;;;;5023331;28;20045;-53
2022/07/15 03:55:40;;;;;;;4.32;2.78;;;20.50;99.90;;;;;;5066190;28;20033;-55
2022/07/15 03:58:06;;;;;;;4.78;3.17;;;20.50;99.90;;;;;;5066769;28;20468;-53
2022/07/15 04:00:32;;;;;;;6.30;3.00;;;20.70;99.90;;;;;;5063923;28;20037;-56
2022/07/15 04:02:58;;;;;;;5.25;3.63;;;20.80;99.90;;;;;;5029732;28;20045;-55
2022/07/15 04:05:23;;;;;;;10.20;3.05;;;20.90;99.90;;;;;;5040765;28;20463;-52
2022/07/15 04:07:49;;;;;;;8.98;3.80;;;21.00;99.90;;;;;;5066209;28;20035;-56
2022/07/15 04:10:15;;;;;;;10.18;3.72;;;21.10;99.90;;;;;;5026281;28;20127;-52
2022/07/15 04:12:41;;;;;;;4.40;2.67;;;21.20;99.90;;;;;;5028699;28;20041;-52
2022/07/15 04:15:07;;;;;;;7.63;3.08;;;21.20;99.90;;;;;;5061829;28;20029;-56
2022/07/15 04:17:34;;;;;;;7.30;3.85;;;21.10;99.90;;;;;;5005268;28;20041;-55
2022/07/15 04:19:59;;;;;;;4.85;2.80;;;21.10;99.90;;;;;;5066711;28;20041;-56
2022/07/15 04:22:25;;;;;;;6.97;3.08;;;21.10;99.90;;;;;;5064090;28;20075;-55
2022/07/15 04:24:51;;;;;;;8.02;4.38;;;21.00;99.90;;;;;;5045019;28;20429;-54
2022/07/15 04:27:18;;;;;;;8.38;4.97;;;21.00;99.90;;;;;;5065849;28;20287;-55
2022/07/15 04:29:44;;;;;;;9.63;4.90;;;21.20;99.90;;;;;;5064710;28;20116;-53
2022/07/15 04:32:09;;;;;;;11.27;6.68;;;21.30;99.90;;;;;;5064872;28;20100;-52
2022/07/15 04:34:35;;;;;;;9.25;5.93;;;21.40;99.90;;;;;;5065506;28;20033;-56
2022/07/15 04:37:02;;;;;;;17.25;7.97;;;21.40;99.90;;;;;;5057278;28;20036;-53
2022/07/15 04:39:27;;;;;;;12.13;6.78;;;21.60;99.90;;;;;;5049965;28;20064;-53
2022/07/15 04:41:53;;;;;;;13.40;6.47;;;21.70;99.90;;;;;;5042381;28;20041;-52
2022/07/15 04:44:19;;;;;;;8.57;5.90;;;21.80;99.90;;;;;;5065368;28;20025;-55
2022/07/15 04:46:45;;;;;;;13.07;6.57;;;22.00;99.90;;;;;;5028017;28;20037;-53
2022/07/15 04:51:55;;;;;;;8.55;5.95;;;22.30;99.90;;;;;;5033953;28;20051;-54
2022/07/15 04:54:21;;;;;;;12.70;5.88;;;22.40;99.90;;;;;;5069476;28;20032;-55
2022/07/15 04:56:46;;;;;;;11.02;6.32;;;22.50;99.90;;;;;;5015044;28;20034;-54
2022/07/15 04:59:12;;;;;;;10.98;6.85;;;22.60;99.90;;;;;;5059121;28;20028;-54
2022/07/15 05:01:38;;;;;;;15.23;6.60;;;22.80;99.90;;;;;;5025389;28;20098;-54
2022/07/15 05:04:04;;;;;;;15.85;7.53;;;22.80;99.90;;;;;;5067455;28;20028;-54
2022/07/15 05:06:29;;;;;;;11.82;6.35;;;22.80;99.90;;;;;;5034250;28;20028;-56
2022/07/15 05:08:55;;;;;;;14.07;7.10;;;22.90;99.90;;;;;;5065106;28;20029;-55
2022/07/15 05:11:21;;;;;;;10.13;6.70;;;22.80;99.90;;;;;;5062783;28;20096;-53
2022/07/15 05:13:47;;;;;;;8.45;4.53;;;23.00;99.90;;;;;;5029931;28;20127;-54
2022/07/15 05:16:12;;;;;;;7.03;4.53;;;23.10;99.90;;;;;;5028939;28;20072;-56
2022/07/15 05:18:40;;;;;;;7.00;4.80;;;23.30;99.90;;;;;;5070689;28;20059;-52
2022/07/15 05:21:05;;;;;;;5.90;3.20;;;23.30;99.90;;;;;;5068585;28;20163;-58
2022/07/15 05:23:31;;;;;;;5.32;3.03;;;23.40;99.90;;;;;;5071297;28;20107;-56
2022/07/15 05:25:57;;;;;;;6.60;3.55;;;23.50;99.90;;;;;;5048850;28;20089;-55
2022/07/15 05:28:23;;;;;;;4.90;3.40;;;23.70;99.90;;;;;;5069240;28;20417;-54
2022/07/15 05:30:49;;;;;;;8.80;3.20;;;23.80;99.90;;;;;;5050399;28;20175;-54
2022/07/15 05:33:18;;;;;;;4.72;2.35;;;;;;;;;;5069251;28;20028;-57
2022/07/15 05:35:44;;;;;;;8.18;2.83;;;24.20;99.90;;;;;;5066390;28;20117;-56
2022/07/15 05:38:11;;;;;;;11.05;3.38;;;24.20;99.90;;;;;;5064857;28;20036;-57
2022/07/15 05:40:37;;;;;;;9.40;3.08;;;24.40;99.90;;;;;;5067982;28;20043;-56
2022/07/15 05:43:03;;;;;;;10.88;6.55;;;;;;;;;;5066637;28;20029;-58
2022/07/15 05:45:29;;;;;;;14.82;5.25;;;24.70;99.90;;;;;;5067858;28;20058;-57
2022/07/15 05:47:54;;;;;;;9.80;5.60;;;24.80;99.90;;;;;;5062295;28;20029;-57
2022/07/15 05:50:21;;;;;;;13.38;7.13;;;;;;;;;;5058638;28;20029;-57
2022/07/15 05:52:46;;;;;;;13.25;5.43;;;25.20;99.90;;;;;;5063444;28;20036;-57
2022/07/15 05:55:12;;;;;;;10.82;4.35;;;25.20;99.90;;;;;;5066497;28;20411;-56
2022/07/15 05:57:38;;;;;;;7.43;4.57;;;25.10;99.90;;;;;;5070830;28;20048;-57
2022/07/15 06:00:06;;;;;;;9.27;4.00;;;25.20;99.90;;;;;;5068031;28;20447;-57
2022/07/15 06:02:31;;;;;;;12.35;4.85;;;25.30;99.90;;;;;;5064095;28;20033;-57
2022/07/15 06:04:57;;;;;;;8.52;3.55;;;25.50;99.90;;;;;;5062227;28;20086;-57
2022/07/15 06:07:23;;;;;;;6.93;3.50;;;;;;;;;;5062648;28;20439;-53
2022/07/15 06:09:50;;;;;;;6.53;2.83;;;25.80;99.90;;;;;;5068680;28;20028;-49
2022/07/15 06:12:19;;;;;;;6.22;3.20;;;;;;;;;;5031911;28;20068;-51
2022/07/15 06:14:45;;;;;;;9.25;3.38;;;26.00;99.90;;;;;;5070843;28;20479;-55
2022/07/15 06:17:11;;;;;;;7.55;3.80;;;26.00;99.90;;;;;;5069767;28;20025;-54
2022/07/15 06:19:37;;;;;;;10.98;3.10;;;26.30;99.90;;;;;;5070264;28;20040;-54
2022/07/15 06:22:03;;;;;;;8.50;3.83;;;;;;;;;;5065518;28;20020;-52
2022/07/15 06:24:29;;;;;;;32.33;7.75;;;26.40;99.90;;;;;;5064253;28;20028;-56
2022/07/15 06:26:55;;;;;;;10.32;4.20;;;;;;;;;;5065356;28;20036;-57
2022/07/15 06:29:21;;;;;;;10.38;5.43;;;26.90;99.90;;;;;;5071017;28;20028;-56
2022/07/15 06:31:48;;;;;;;9.95;4.30;;;;;;;;;;5051920;28;20492;-56
2022/07/15 06:34:14;;;;;;;11.40;3.97;;;;;;;;;;5064434;28;20029;-56
2022/07/15 06:36:41;;;;;;;13.90;4.25;;;;;;;;;;5065928;28;20043;-56
2022/07/15 06:39:07;;;;;;;14.30;4.10;;;;;;;;;;5061941;28;20124;-56
2022/07/15 06:41:33;;;;;;;25.20;4.60;;;;;;;;;;5066179;28;20029;-56
2022/07/15 06:44:00;;;;;;;5.80;2.88;;;;;;;;;;5063913;28;20472;-56
2022/07/15 06:46:26;;;;;;;5.30;2.40;;;27.30;99.90;;;;;;5069303;28;20028;-56
2022/07/15 06:48:52;;;;;;;4.80;2.10;;;;;;;;;;5069859;28;20024;-56
2022/07/15 06:51:18;;;;;;;5.68;3.10;;;;;;;;;;5063787;28;20025;-56
2022/07/15 06:53:44;;;;;;;5.78;2.00;;;;;;;;;;5061140;28;20107;-55
2022/07/15 06:56:10;;;;;;;7.38;2.33;;;27.70;99.20;;;;;;5063316;28;20481;-56
2022/07/15 06:58:36;;;;;;;4.70;2.13;;;27.70;98.70;;;;;;5064351;28;20116;-56
2022/07/15 07:01:02;;;;;;;5.43;1.98;;;27.80;97.80;;;;;;5063016;28;20510;-56
2022/07/15 07:03:27;;;;;;;6.65;2.35;;;27.90;98.10;;;;;;5052606;28;20063;-56
2022/07/15 07:05:53;;;;;;;6.78;2.55;;;27.90;98.20;;;;;;5063175;28;20083;-56
2022/07/15 07:08:19;;;;;;;8.82;2.20;;;;;;;;;;5026801;28;20096;-56
2022/07/15 07:10:45;;;;;;;8.13;2.50;;;28.30;99.90;;;;;;5061254;28;20492;-56
2022/07/15 07:13:11;;;;;;;6.00;2.67;;;28.40;98.30;;;;;;5061045;28;20029;-56
2022/07/15 07:15:37;;;;;;;13.35;2.67;;;;;;;;;;5060510;28;20029;-56
2022/07/15 07:18:03;;;;;;;13.75;3.85;;;28.60;99.90;;;;;;5022662;28;20052;-56
2022/07/15 07:20:29;;;;;;;7.60;2.42;;;28.70;96.90;;;;;;5063845;28;20387;-56
2022/07/15 07:22:54;;;;;;;4.88;2.10;;;28.50;96.00;;;;;;5064453;28;20068;-56
2022/07/15 07:25:20;;;;;;;6.40;2.90;;;28.60;96.20;;;;;;5064073;28;20040;-56
2022/07/15 07:27:46;;;;;;;8.65;2.35;;;28.80;96.40;;;;;;5042533;28;20526;-56
2022/07/15 07:30:12;;;;;;;8.93;2.67;;;28.80;95.70;;;;;;5061433;28;20057;-56
2022/07/15 07:32:37;;;;;;;9.40;3.05;;;28.90;95.50;;;;;;5028544;28;20033;-56
2022/07/15 07:35:03;;;;;;;5.15;3.05;;;29.00;95.90;;;;;;5061792;28;20060;-56
2022/07/15 07:37:34;;;;;;;8.77;2.72;;;;;;;;;;5024972;28;20050;-56
2022/07/15 07:39:59;;;;;;;5.97;3.10;;;29.30;96.20;;;;;;5059445;28;20056;-56
2022/07/15 07:42:25;;;;;;;4.65;3.13;;;29.10;95.60;;;;;;5063869;28;20041;-57
2022/07/15 07:44:51;;;;;;;4.47;2.40;;;29.10;95.60;;;;;;5065761;28;20040;-57
2022/07/15 07:47:17;;;;;;;7.25;2.42;;;29.20;94.60;;;;;;5065918;28;20087;-56
2022/07/15 07:49:44;;;;;;;7.47;2.67;;;29.10;95.50;;;;;;5064498;28;20021;-56
2022/07/15 07:52:09;;;;;;;10.00;2.70;;;29.20;96.00;;;;;;5064650;28;20380;-56
2022/07/15 07:54:35;;;;;;;5.72;2.50;;;29.30;96.10;;;;;;5056970;28;20029;-56
2022/07/15 07:57:01;;;;;;;6.28;2.50;;;29.10;95.70;;;;;;5064436;28;20036;-57
2022/07/15 07:59:27;;;;;;;6.82;2.38;;;29.20;96.30;;;;;;5046237;28;20035;-57
2022/07/15 08:01:53;;;;;;;4.40;2.00;;;29.20;95.90;;;;;;5065677;28;20104;-56
2022/07/15 08:04:18;;;;;;;3.67;2.50;;;29.10;96.00;;;;;;5055164;28;20025;-56
2022/07/15 08:06:45;;;;;;;5.88;2.28;;;29.10;95.70;;;;;;5064532;28;20438;-57
2022/07/15 08:09:10;;;;;;;7.13;2.80;;;29.30;96.40;;;;;;5013365;28;20033;-56
2022/07/15 08:11:36;;;;;;;4.88;2.58;;;;;;;;;;5045360;28;20044;-56
2022/07/15 08:14:03;;;;;;;7.60;2.70;;;;;;;;;;5064562;28;20033;-56
2022/07/15 08:16:28;;;;;;;8.40;2.40;;;29.80;99.90;;;;;;5063198;28;20036;-56
2022/07/15 08:18:54;;;;;;;8.60;2.60;;;29.80;99.90;;;;;;5021632;28;20048;-56
2022/07/15 08:21:22;;;;;;;4.10;2.40;;;;;;;;;;5022689;28;20041;-56
2022/07/15 08:23:49;;;;;;;5.53;2.70;;;;;;;;;;5022775;28;20656;-56
2022/07/15 08:26:22;;;;;;;5.60;3.15;;;;;;;;;;5020851;28;20600;-56
2022/07/15 08:28:49;;;;;;;7.03;2.92;;;;;;;;;;5020724;28;20041;-56
2022/07/15 08:31:15;;;;;;;4.50;2.38;;;;;;;;;;5014478;28;20080;-56
2022/07/15 08:33:41;;;;;;;5.38;2.65;;;;;;;;;;5021692;28;20549;-55
2022/07/15 08:36:07;;;;;;;6.63;2.85;;;30.30;96.70;;;;;;4982102;28;20069;-56
2022/07/15 08:38:33;;;;;;;7.00;3.08;;;;;;;;;;5020273;28;20088;-55
2022/07/15 08:40:59;;;;;;;8.20;3.10;;;;;;;;;;5004367;28;20104;-56
2022/07/15 08:43:25;;;;;;;7.20;3.65;;;;;;;;;;5019551;28;20061;-56
2022/07/15 08:45:52;;;;;;;11.02;4.40;;;;;;;;;;5019985;28;20453;-56
2022/07/15 08:48:19;;;;;;;7.70;3.03;;;;;;;;;;5020301;28;20038;-56
2022/07/15 08:50:45;;;;;;;5.18;2.92;;;;;;;;;;5021034;28;20034;-56
2022/07/15 08:53:11;;;;;;;7.85;3.17;;;31.20;99.90;;;;;;5026342;28;20064;-56
2022/07/15 08:55:37;;;;;;;9.82;2.90;;;31.20;99.90;;;;;;5019928;28;20545;-56
2022/07/15 08:58:02;;;;;;;5.07;2.38;;;31.10;99.90;;;;;;5023837;28;20040;-56
2022/07/15 09:00:29;;;;;;;10.55;2.42;;;;;;;;;;5062329;28;20076;-56
2022/07/15 09:02:59;;;;;;;10.63;2.47;;;;;;;;;;5063955;28;20112;-57
2022/07/15 09:05:28;;;;;;;7.90;2.17;;;31.60;99.90;;;;;;5062085;28;20033;-56
2022/07/15 09:08:01;;;;;;;4.60;2.72;;;31.50;92.60;;;;;;5064268;28;20067;-55
2022/07/15 09:10:42;;;;;;;5.55;2.10;;;;;;;;;;5064457;28;20029;-58
2022/07/15 09:13:09;;;;;;;6.25;2.47;;;;;;;;;;5055442;28;20067;-56
2022/07/15 09:15:37;;;;;;;8.18;2.28;;;31.30;99.90;;;;;;5064214;28;20078;-56
2022/07/15 09:18:06;;;;;;;5.55;2.00;;;;;;;;;;5062639;28;20446;-56
2022/07/15 09:20:32;;;;;;;6.65;2.28;;;;;;;;;;5062967;28;20087;-57
2022/07/15 09:22:59;;;;;;;11.52;2.78;;;32.20;91.50;;;;;;5057526;28;20472;-56
2022/07/15 09:25:27;;;;;;;7.13;2.10;;;32.30;91.90;;;;;;5062593;28;20094;-57
2022/07/15 09:27:53;;;;;;;3.53;1.98;;;32.50;91.40;;;;;;5062520;28;20344;-56
2022/07/15 09:36:12;;;;;;;10.32;2.75;;;32.50;91.20;;;;;;5066109;28;20046;-56
2022/07/15 09:38:44;;;;;;;7.15;2.42;;;32.70;91.00;;;;;;5054802;28;20095;-56
2022/07/15 09:41:30;;;;;;;5.40;2.20;;;32.70;91.30;;;;;;5063745;28;20037;-56
2022/07/15 09:43:59;;;;;;;6.15;2.50;;;32.90;91.30;;;;;;5059209;28;20130;-56
2022/07/15 09:46:28;;;;;;;3.65;2.05;;;32.80;90.70;;;;;;5061855;28;20028;-55
2022/07/15 09:49:17;;;;;;;5.97;1.95;;;32.70;90.50;;;;;;5017355;28;20064;-57
2022/07/15 09:51:50;;;;;;;4.85;1.83;;;32.80;89.20;;;;;;5067477;28;20032;-56
2022/07/15 09:54:18;;;;;;;6.18;2.00;;;32.80;88.40;;;;;;5014621;28;20131;-55
2022/07/15 09:56:47;;;;;;;6.25;2.13;;;32.90;87.80;;;;;;5019098;28;20099;-57
2022/07/15 09:59:15;;;;;;;3.65;1.75;;;;;;;;;;5063835;28;20043;-56
2022/07/15 10:01:41;;;;;;;3.95;1.52;;;33.60;87.20;;;;;;5064149;28;20507;-51
2022/07/15 10:04:06;;;;;;;5.93;1.75;;;33.30;87.40;;;;;;5044661;28;20424;-51
2022/07/15 10:06:38;;;;;;;4.05;1.88;;;33.10;87.30;;;;;;5055568;28;20040;-56
2022/07/15 10:09:05;;;;;;;4.30;1.90;;;33.30;88.40;;;;;;5064034;28;20040;-56
2022/07/15 10:11:37;;;;;;;3.40;1.50;;;33.30;87.10;;;;;;5064027;28;20468;-57
2022/07/15 10:14:11;;;;;;;2.95;1.73;;;33.70;86.90;;;;;;5061727;28;20126;-56
2022/07/15 10:16:55;;;;;;;5.25;2.08;;;33.90;86.30;;;;;;5063878;28;20155;-51
2022/07/15 10:20:00;;;;;;;7.70;1.50;;;34.00;86.80;;;;;;5054990;28;20048;-52
2022/07/15 10:22:55;;;;;;;4.50;1.83;;;34.00;86.20;;;;;;5008387;28;20109;-51
2022/07/15 10:25:41;;;;;;;5.90;1.88;;;34.30;86.60;;;;;;4998374;28;20081;-53
2022/07/15 10:28:16;;;;;;;6.93;1.70;;;;;;;;;;5009346;28;20029;-53
2022/07/15 10:30:43;;;;;;;4.43;1.60;;;34.70;95.90;;;;;;4988915;28;20397;-52
2022/07/15 10:33:18;;;;;;;4.45;1.55;;;34.80;85.30;;;;;;4998314;28;20042;-52
2022/07/15 10:35:48;;;;;;;3.63;1.40;;;34.80;84.10;;;;;;4996631;28;20422;-51
2022/07/15 10:38:38;;;;;;;8.35;1.80;;;35.00;82.20;;;;;;4984439;28;20108;-48
2022/07/15 10:41:07;;;;;;;4.75;1.77;;;35.20;82.60;;;;;;4999213;28;20089;-54
2022/07/15 10:43:42;;;;;;;4.90;1.80;;;35.10;83.10;;;;;;4999688;28;20073;-48
2022/07/15 10:46:28;;;;;;;5.50;1.98;;;34.80;83.30;;;;;;5001857;28;20060;-49
2022/07/15 10:49:00;;;;;;;4.30;1.80;;;34.80;83.30;;;;;;5002790;28;20470;-60
2022/07/15 10:51:46;;;;;;;4.47;1.90;;;34.80;81.70;;;;;;5007289;28;20038;-50
2022/07/15 10:54:18;;;;;;;3.03;1.55;;;35.00;83.10;;;;;;5006588;28;20548;-48
2022/07/15 10:56:44;;;;;;;;;;;34.80;83.20;;;;;;5002047;28;20152;-50
2022/07/15 10:59:21;;;;;;;3.58;1.55;;;34.70;83.20;;;;;;5063980;28;19923;-55
2022/07/15 11:01:48;;;;;;;4.30;1.63;;;;;;;;;;5056014;28;20033;-55
2022/07/15 11:04:17;;;;;;;2.92;1.63;;;35.60;93.60;;;;;;5061365;28;20033;-55
2022/07/15 11:07:10;;;;;;;2.85;1.60;;;35.80;81.10;;;;;;5054399;28;20036;-55
2022/07/15 11:09:51;;;;;;;3.53;1.88;;;35.60;82.00;;;;;;4990456;28;20038;-55
2022/07/15 11:12:31;;;;;;;4.45;1.85;;;35.70;80.30;;;;;;4982342;28;20470;-55
2022/07/15 11:15:13;;;;;;;5.82;1.50;;;35.40;79.00;;;;;;4981666;28;20043;-56
2022/07/15 11:17:42;;;;;;;2.60;1.70;;;35.60;77.80;;;;;;4977708;28;20039;-55
2022/07/15 11:20:19;;;;;;;5.25;1.67;;;35.60;77.00;;;;;;4984734;28;20565;-55
2022/07/15 11:22:47;;;;;;;3.47;1.23;;;;;;;;;;4985541;28;20078;-54
2022/07/15 11:25:33;;;;;;;4.05;1.60;;;35.60;76.70;;;;;;4981081;28;20054;-50
2022/07/15 11:28:02;;;;;;;4.75;1.70;;;;;;;;;;4980485;28;20074;-51
2022/07/15 11:30:30;;;;;;;4.40;2.10;;;36.00;96.30;;;;;;4961117;28;20043;-53
2022/07/15 11:32:58;;;;;;;3.83;2.85;;;36.10;98.10;;;;;;4986888;28;20061;-51
2022/07/15 11:35:25;;;;;;;2.67;1.77;;;36.30;99.70;;;;;;4945077;28;20031;-52
2022/07/15 11:38:03;;;;;;;6.82;2.08;;;36.50;77.30;;;;;;4977103;28;20071;-51
2022/07/15 11:46:04;;;;;;;8.32;2.40;;;36.50;77.80;;;;;;4998815;28;20182;-52
2022/07/15 11:48:35;;;;;;;3.28;1.60;;;36.60;76.50;;;;;;5067112;28;20032;-51
2022/07/15 11:51:02;;;;;;;3.45;1.73;;;36.50;76.40;;;;;;5063054;28;20032;-51
2022/07/15 11:53:27;;;;;;;6.20;1.90;;;36.70;75.10;;;;;;5061623;28;20154;-53
2022/07/15 11:55:58;;;;;;;5.32;1.73;;;36.80;76.10;;;;;;5031458;28;20074;-51
2022/07/15 11:58:29;;;;;;;5.50;2.40;;;37.30;76.30;;;;;;5069371;28;20032;-52
2022/07/15 12:00:56;;;;;;;4.82;2.40;;;37.40;75.50;;;;;;5058096;28;20044;-53
2022/07/15 12:03:22;;;;;;;6.63;2.38;;;37.10;74.80;;;;;;5068253;28;20033;-53
2022/07/15 12:06:05;;;;;;;6.07;2.30;;;37.40;76.20;;;;;;5065032;28;20566;-52
2022/07/15 12:08:55;;;;;;;6.85;2.97;;;37.40;75.60;;;;;;4953149;28;20042;-51
2022/07/15 12:11:28;;;;;;;5.78;2.25;;;37.50;75.00;;;;;;4919588;29;20449;-52
2022/07/15 12:13:57;;;;;;;3.58;2.05;;;;;;;;;;4944384;29;20039;-52
2022/07/15 12:16:34;;;;;;;5.00;2.38;;;37.60;72.60;;;;;;4954073;29;20043;-53
2022/07/15 12:19:03;;;;;;;4.32;1.92;;;37.60;74.90;;;;;;4946396;29;20047;-51
2022/07/15 12:21:29;;;;;;;5.72;2.67;;;37.90;74.90;;;;;;4937865;29;20387;-52
2022/07/15 12:24:16;;;;;;;5.00;2.50;;;37.80;76.00;;;;;;4915097;29;20031;-53
2022/07/15 12:26:57;;;;;;;5.38;2.42;;;38.10;73.70;;;;;;4952237;29;20027;-52
2022/07/15 12:29:32;;;;;;;8.98;2.65;;;38.20;79.50;;;;;;4953872;29;20054;-53
2022/07/15 12:32:12;;;;;;;7.18;2.20;;;38.20;78.40;;;;;;4953744;29;20039;-52
2022/07/15 12:34:47;;;;;;;3.55;1.90;;;38.20;78.10;;;;;;4954515;29;20045;-51
2022/07/15 12:37:19;;;;;;;9.45;3.20;;;38.10;79.40;;;;;;4953623;29;20046;-54
2022/07/15 12:40:06;;;;;;;7.18;2.20;;;38.00;81.40;;;;;;4977836;28;20499;-51
2022/07/15 12:42:38;;;;;;;5.72;2.00;;;37.90;79.00;;;;;;5012648;28;20037;-53
2022/07/15 12:45:22;;;;;;;3.05;1.60;;;37.90;80.70;;;;;;5011831;28;20378;-53
2022/07/15 12:48:04;;;;;;;3.50;1.95;;;37.20;74.50;;;;;;5023352;28;20247;-51
2022/07/15 12:50:34;;;;;;;4.03;2.22;;;37.50;77.20;;;;;;5039564;28;20052;-51
2022/07/15 12:53:00;;;;;;;4.93;2.05;;;37.70;75.50;;;;;;5070889;28;20115;-52
2022/07/15 12:55:29;;;;;;;3.33;1.75;;;38.10;73.30;;;;;;5072919;28;20063;-52
2022/07/15 12:58:08;;;;;;;3.50;2.28;;;;;;;;;;5068256;28;20020;-52
2022/07/15 13:00:34;;;;;;;4.55;2.00;;;38.50;73.30;;;;;;5071749;28;20029;-51
2022/07/15 13:03:10;;;;;;;6.35;2.15;;;38.40;72.50;;;;;;5053989;28;20045;-51
2022/07/15 13:05:43;;;;;;;3.13;1.90;;;38.10;79.90;;;;;;5054629;28;20108;-52
2022/07/15 13:08:11;;;;;;;4.65;1.85;;;37.90;83.00;;;;;;4988763;28;20037;-52
2022/07/15 13:10:40;;;;;;;2.92;1.90;;;38.40;83.90;;;;;;5071372;28;20032;-53
2022/07/15 13:13:07;;;;;;;3.03;1.92;;;38.40;82.40;;;;;;5071373;28;20056;-53
2022/07/15 13:15:33;;;;;;;2.88;1.88;;;38.50;81.30;;;;;;5063037;28;20024;-51
2022/07/15 13:17:59;;;;;;;4.28;2.00;;;38.70;88.70;;;;;;5033072;28;20048;-51
2022/07/15 13:20:26;;;;;;;6.20;1.75;;;38.10;84.10;;;;;;5064925;28;20097;-51
2022/07/15 13:22:52;;;;;;;2.15;1.63;;;38.00;85.30;;;;;;5012386;28;20402;-53
2022/07/15 13:25:18;;;;;;;5.97;2.25;;;38.00;91.00;;;;;;5066475;28;20089;-52
2022/07/15 13:27:44;;;;;;;3.95;1.80;;;38.00;87.80;;;;;;5015052;28;20089;-54
2022/07/15 13:30:11;;;;;;;2.85;1.50;;;38.10;87.60;;;;;;5065909;28;20032;-53
2022/07/15 13:32:38;;;;;;;7.90;1.70;;;;;;;;;;5068836;28;20468;-51